sensor_id;sensor_type;location;lat;lon;timestamp;P1;durP1;ratioP1;P2;durP2;ratioP2
24173;SDS011;12324;48.146;11.502;2023-06-10T00:02:06;8.30;;;4.43;;
24173;SDS011;12324;48.146;11.502;2023-06-10T00:04:34;8.50;;;4.43;;
24173;SDS011;12324;48.146;11.502;2023-06-10T00:07:03;9.60;;;4.57;;
24173;SDS011;12324;48.146;11.502;2023-06-10T00:09:35;8.55;;;4.05;;
24173;SDS011;12324;48.146;11.502;2023-06-10T00:12:06;9.35;;;4.25;;
24173;SDS011;12324;48.146;11.502;2023-06-10T00:14:34;10.50;;;4.82;;
24173;SDS011;12324;48.146;11.502;2023-06-10T00:17:02;8.60;;;4.10;;
24173;SDS011;12324;48.146;11.502;2023-06-10T00:19:29;9.63;;;4.57;;
24173;SDS011;12324;48.146;11.502;2023-06-10T00:21:56;10.50;;;4.50;;
24173;SDS011;12324;48.146;11.502;2023-06-10T00:24:24;8.55;;;4.65;;
24173;SDS011;12324;48.146;11.502;2023-06-10T00:26:51;8.52;;;4.28;;
24173;SDS011;12324;48.146;11.502;2023-06-10T00:29:18;10.10;;;4.63;;
24173;SDS011;12324;48.146;11.502;2023-06-10T00:31:46;11.82;;;4.93;;
24173;SDS011;12324;48.146;11.502;2023-06-10T00:34:13;8.77;;;4.20;;
24173;SDS011;12324;48.146;11.502;2023-06-10T00:36:40;11.55;;;4.68;;
24173;SDS011;12324;48.146;11.502;2023-06-10T00:39:09;10.07;;;4.57;;
24173;SDS011;12324;48.146;11.502;2023-06-10T00:41:36;8.65;;;4.32;;
24173;SDS011;12324;48.146;11.502;2023-06-10T00:44:03;11.30;;;4.45;;
24173;SDS011;12324;48.146;11.502;2023-06-10T00:46:30;10.07;;;5.03;;
24173;SDS011;12324;48.146;11.502;2023-06-10T00:48:59;9.30;;;4.72;;
24173;SDS011;12324;48.146;11.502;2023-06-10T00:51:27;10.07;;;4.72;;
24173;SDS011;12324;48.146;11.502;2023-06-10T00:53:54;10.70;;;5.60;;
24173;SDS011;12324;48.146;11.502;2023-06-10T00:56:21;9.02;;;4.82;;
24173;SDS011;12324;48.146;11.502;2023-06-10T00:58:48;12.18;;;5.75;;
24173;SDS011;12324;48.146;11.502;2023-06-10T01:01:16;11.80;;;5.80;;
24173;SDS011;12324;48.146;11.502;2023-06-10T01:03:44;12.90;;;5.45;;
24173;SDS011;12324;48.146;11.502;2023-06-10T01:06:18;12.10;;;5.65;;
24173;SDS011;12324;48.146;11.502;2023-06-10T01:08:50;12.52;;;6.32;;
24173;SDS011;12324;48.146;11.502;2023-06-10T01:11:29;12.82;;;5.75;;
24173;SDS011;12324;48.146;11.502;2023-06-10T01:13:59;11.25;;;5.95;;
24173;SDS011;12324;48.146;11.502;2023-06-10T01:16:27;11.93;;;6.03;;
24173;SDS011;12324;48.146;11.502;2023-06-10T01:18:55;11.88;;;5.75;;
24173;SDS011;12324;48.146;11.502;2023-06-10T01:21:22;8.75;;;5.00;;
24173;SDS011;12324;48.146;11.502;2023-06-10T01:23:51;12.73;;;6.28;;
24173;SDS011;12324;48.146;11.502;2023-06-10T01:26:19;11.18;;;5.45;;
24173;SDS011;12324;48.146;11.502;2023-06-10T01:28:50;12.90;;;6.00;;
24173;SDS011;12324;48.146;11.502;2023-06-10T01:34:09;13.02;;;6.32;;
24173;SDS011;12324;48.146;11.502;2023-06-10T01:36:37;13.20;;;6.28;;
24173;SDS011;12324;48.146;11.502;2023-06-10T01:39:05;12.13;;;5.65;;
24173;SDS011;12324;48.146;11.502;2023-06-10T01:41:33;11.73;;;5.97;;
24173;SDS011;12324;48.146;11.502;2023-06-10T01:44:01;12.85;;;6.22;;
24173;SDS011;12324;48.146;11.502;2023-06-10T01:46:28;12.77;;;6.32;;
24173;SDS011;12324;48.146;11.502;2023-06-10T01:48:56;11.95;;;5.53;;
24173;SDS011;12324;48.146;11.502;2023-06-10T01:51:23;11.25;;;5.72;;
24173;SDS011;12324;48.146;11.502;2023-06-10T01:53:50;12.07;;;6.15;;
24173;SDS011;12324;48.146;11.502;2023-06-10T01:56:17;12.68;;;6.00;;
24173;SDS011;12324;48.146;11.502;2023-06-10T01:58:46;13.27;;;6.00;;
24173;SDS011;12324;48.146;11.502;2023-06-10T02:01:13;13.75;;;6.13;;
24173;SDS011;12324;48.146;11.502;2023-06-10T02:03:41;12.10;;;5.60;;
24173;SDS011;12324;48.146;11.502;2023-06-10T02:06:08;15.27;;;6.70;;
24173;SDS011;12324;48.146;11.502;2023-06-10T02:08:35;11.40;;;5.97;;
24173;SDS011;12324;48.146;11.502;2023-06-10T02:11:02;13.68;;;6.82;;
24173;SDS011;12324;48.146;11.502;2023-06-10T02:13:29;11.07;;;5.57;;
24173;SDS011;12324;48.146;11.502;2023-06-10T02:15:56;14.07;;;7.05;;
24173;SDS011;12324;48.146;11.502;2023-06-10T02:18:23;13.13;;;6.32;;
24173;SDS011;12324;48.146;11.502;2023-06-10T02:20:52;10.00;;;5.10;;
24173;SDS011;12324;48.146;11.502;2023-06-10T02:23:20;13.48;;;6.45;;
24173;SDS011;12324;48.146;11.502;2023-06-10T02:25:47;13.82;;;6.85;;
24173;SDS011;12324;48.146;11.502;2023-06-10T02:28:14;12.65;;;6.45;;
24173;SDS011;12324;48.146;11.502;2023-06-10T02:30:41;13.15;;;6.50;;
24173;SDS011;12324;48.146;11.502;2023-06-10T02:33:08;11.65;;;6.22;;
24173;SDS011;12324;48.146;11.502;2023-06-10T02:35:40;12.57;;;6.38;;
24173;SDS011;12324;48.146;11.502;2023-06-10T02:38:07;12.55;;;6.97;;
24173;SDS011;12324;48.146;11.502;2023-06-10T02:40:34;12.93;;;6.38;;
24173;SDS011;12324;48.146;11.502;2023-06-10T02:43:01;13.18;;;6.55;;
24173;SDS011;12324;48.146;11.502;2023-06-10T02:45:28;12.18;;;6.50;;
24173;SDS011;12324;48.146;11.502;2023-06-10T02:47:55;12.52;;;5.85;;
24173;SDS011;12324;48.146;11.502;2023-06-10T02:50:23;12.32;;;5.82;;
24173;SDS011;12324;48.146;11.502;2023-06-10T02:52:50;12.00;;;6.05;;
24173;SDS011;12324;48.146;11.502;2023-06-10T02:55:17;13.25;;;6.93;;
24173;SDS011;12324;48.146;11.502;2023-06-10T02:57:44;12.80;;;6.43;;
24173;SDS011;12324;48.146;11.502;2023-06-10T03:00:11;11.25;;;6.50;;
24173;SDS011;12324;48.146;11.502;2023-06-10T03:02:40;12.50;;;6.32;;
24173;SDS011;12324;48.146;11.502;2023-06-10T03:05:08;11.60;;;5.63;;
24173;SDS011;12324;48.146;11.502;2023-06-10T03:07:36;11.10;;;5.38;;
24173;SDS011;12324;48.146;11.502;2023-06-10T03:10:05;13.27;;;6.32;;
24173;SDS011;12324;48.146;11.502;2023-06-10T03:12:32;12.13;;;5.97;;
24173;SDS011;12324;48.146;11.502;2023-06-10T03:15:00;11.10;;;5.60;;
24173;SDS011;12324;48.146;11.502;2023-06-10T03:17:27;12.80;;;6.15;;
24173;SDS011;12324;48.146;11.502;2023-06-10T03:19:54;11.98;;;6.28;;
24173;SDS011;12324;48.146;11.502;2023-06-10T03:22:22;12.75;;;6.57;;
24173;SDS011;12324;48.146;11.502;2023-06-10T03:24:49;13.50;;;6.45;;
24173;SDS011;12324;48.146;11.502;2023-06-10T03:27:17;11.65;;;6.38;;
24173;SDS011;12324;48.146;11.502;2023-06-10T03:29:44;14.07;;;7.15;;
24173;SDS011;12324;48.146;11.502;2023-06-10T03:32:11;12.82;;;6.75;;
24173;SDS011;12324;48.146;11.502;2023-06-10T03:34:38;14.48;;;7.32;;
24173;SDS011;12324;48.146;11.502;2023-06-10T03:37:05;13.18;;;7.45;;
24173;SDS011;12324;48.146;11.502;2023-06-10T03:39:33;14.00;;;6.47;;
24173;SDS011;12324;48.146;11.502;2023-06-10T03:42:00;14.25;;;7.30;;
24173;SDS011;12324;48.146;11.502;2023-06-10T03:44:27;12.35;;;6.78;;
24173;SDS011;12324;48.146;11.502;2023-06-10T03:46:54;11.90;;;6.72;;
24173;SDS011;12324;48.146;11.502;2023-06-10T03:49:22;14.93;;;7.30;;
24173;SDS011;12324;48.146;11.502;2023-06-10T03:51:53;15.65;;;8.25;;
24173;SDS011;12324;48.146;11.502;2023-06-10T03:54:20;13.70;;;7.63;;
24173;SDS011;12324;48.146;11.502;2023-06-10T03:56:47;12.95;;;7.10;;
24173;SDS011;12324;48.146;11.502;2023-06-10T03:59:14;15.63;;;8.10;;
24173;SDS011;12324;48.146;11.502;2023-06-10T04:01:42;12.43;;;7.05;;
24173;SDS011;12324;48.146;11.502;2023-06-10T04:04:12;13.95;;;7.15;;
24173;SDS011;12324;48.146;11.502;2023-06-10T04:06:40;16.77;;;7.80;;
24173;SDS011;12324;48.146;11.502;2023-06-10T04:09:09;13.55;;;6.75;;
24173;SDS011;12324;48.146;11.502;2023-06-10T04:11:37;14.35;;;7.68;;
24173;SDS011;12324;48.146;11.502;2023-06-10T04:14:04;13.02;;;6.70;;
24173;SDS011;12324;48.146;11.502;2023-06-10T04:16:31;16.60;;;7.15;;
24173;SDS011;12324;48.146;11.502;2023-06-10T04:18:58;13.25;;;7.05;;
24173;SDS011;12324;48.146;11.502;2023-06-10T04:21:26;15.73;;;7.75;;
24173;SDS011;12324;48.146;11.502;2023-06-10T04:23:54;12.82;;;7.15;;
24173;SDS011;12324;48.146;11.502;2023-06-10T04:26:21;15.25;;;7.55;;
24173;SDS011;12324;48.146;11.502;2023-06-10T04:28:48;14.85;;;8.07;;
24173;SDS011;12324;48.146;11.502;2023-06-10T04:31:15;13.45;;;7.75;;
24173;SDS011;12324;48.146;11.502;2023-06-10T04:33:42;14.45;;;7.45;;
24173;SDS011;12324;48.146;11.502;2023-06-10T04:36:09;16.33;;;8.40;;
24173;SDS011;12324;48.146;11.502;2023-06-10T04:38:37;13.88;;;7.68;;
24173;SDS011;12324;48.146;11.502;2023-06-10T04:41:04;15.85;;;8.52;;
24173;SDS011;12324;48.146;11.502;2023-06-10T04:43:31;15.50;;;7.93;;
24173;SDS011;12324;48.146;11.502;2023-06-10T04:45:58;16.17;;;8.75;;
24173;SDS011;12324;48.146;11.502;2023-06-10T04:48:25;16.42;;;8.48;;
24173;SDS011;12324;48.146;11.502;2023-06-10T04:50:53;16.33;;;8.68;;
24173;SDS011;12324;48.146;11.502;2023-06-10T04:53:20;15.13;;;7.88;;
24173;SDS011;12324;48.146;11.502;2023-06-10T04:55:47;15.88;;;7.88;;
24173;SDS011;12324;48.146;11.502;2023-06-10T04:58:14;16.38;;;7.97;;
24173;SDS011;12324;48.146;11.502;2023-06-10T05:00:41;17.65;;;8.05;;
24173;SDS011;12324;48.146;11.502;2023-06-10T05:03:10;15.95;;;8.90;;
24173;SDS011;12324;48.146;11.502;2023-06-10T05:05:37;13.85;;;7.93;;
24173;SDS011;12324;48.146;11.502;2023-06-10T05:08:04;17.30;;;8.45;;
24173;SDS011;12324;48.146;11.502;2023-06-10T05:10:33;15.45;;;7.72;;
24173;SDS011;12324;48.146;11.502;2023-06-10T05:13:01;15.20;;;8.13;;
24173;SDS011;12324;48.146;11.502;2023-06-10T05:15:29;14.10;;;7.78;;
24173;SDS011;12324;48.146;11.502;2023-06-10T05:17:57;14.20;;;7.32;;
24173;SDS011;12324;48.146;11.502;2023-06-10T05:20:25;14.35;;;7.93;;
24173;SDS011;12324;48.146;11.502;2023-06-10T05:22:53;15.50;;;8.35;;
24173;SDS011;12324;48.146;11.502;2023-06-10T05:25:22;17.70;;;8.98;;
24173;SDS011;12324;48.146;11.502;2023-06-10T05:27:49;15.73;;;7.72;;
24173;SDS011;12324;48.146;11.502;2023-06-10T05:30:16;16.42;;;8.30;;
24173;SDS011;12324;48.146;11.502;2023-06-10T05:32:44;14.93;;;7.80;;
24173;SDS011;12324;48.146;11.502;2023-06-10T05:35:12;14.93;;;7.90;;
24173;SDS011;12324;48.146;11.502;2023-06-10T05:37:39;12.93;;;7.22;;
24173;SDS011;12324;48.146;11.502;2023-06-10T05:40:06;17.15;;;9.20;;
24173;SDS011;12324;48.146;11.502;2023-06-10T05:42:33;15.02;;;8.07;;
24173;SDS011;12324;48.146;11.502;2023-06-10T05:45:01;13.55;;;7.93;;
24173;SDS011;12324;48.146;11.502;2023-06-10T05:47:28;17.42;;;8.25;;
24173;SDS011;12324;48.146;11.502;2023-06-10T05:49:55;15.77;;;8.35;;
24173;SDS011;12324;48.146;11.502;2023-06-10T05:52:23;13.93;;;7.90;;
24173;SDS011;12324;48.146;11.502;2023-06-10T05:54:50;15.80;;;8.18;;
24173;SDS011;12324;48.146;11.502;2023-06-10T05:57:17;16.20;;;8.23;;
24173;SDS011;12324;48.146;11.502;2023-06-10T05:59:44;15.85;;;7.72;;
24173;SDS011;12324;48.146;11.502;2023-06-10T06:02:11;16.83;;;7.97;;
24173;SDS011;12324;48.146;11.502;2023-06-10T06:04:38;16.73;;;8.40;;
24173;SDS011;12324;48.146;11.502;2023-06-10T06:07:06;13.25;;;7.15;;
24173;SDS011;12324;48.146;11.502;2023-06-10T06:09:33;14.55;;;7.57;;
24173;SDS011;12324;48.146;11.502;2023-06-10T06:12:00;13.38;;;6.65;;
24173;SDS011;12324;48.146;11.502;2023-06-10T06:14:30;12.88;;;6.80;;
24173;SDS011;12324;48.146;11.502;2023-06-10T06:16:58;15.57;;;8.20;;
24173;SDS011;12324;48.146;11.502;2023-06-10T06:19:25;15.65;;;7.97;;
24173;SDS011;12324;48.146;11.502;2023-06-10T06:21:52;13.25;;;7.00;;
24173;SDS011;12324;48.146;11.502;2023-06-10T06:24:19;15.60;;;8.32;;
24173;SDS011;12324;48.146;11.502;2023-06-10T06:26:46;13.95;;;7.60;;
24173;SDS011;12324;48.146;11.502;2023-06-10T06:29:13;15.48;;;7.53;;
24173;SDS011;12324;48.146;11.502;2023-06-10T06:31:39;12.55;;;6.78;;
24173;SDS011;12324;48.146;11.502;2023-06-10T06:34:07;14.10;;;7.15;;
24173;SDS011;12324;48.146;11.502;2023-06-10T06:36:34;13.35;;;7.03;;
24173;SDS011;12324;48.146;11.502;2023-06-10T06:39:01;14.38;;;7.90;;
24173;SDS011;12324;48.146;11.502;2023-06-10T06:41:28;15.50;;;7.80;;
24173;SDS011;12324;48.146;11.502;2023-06-10T06:43:55;16.95;;;7.30;;
24173;SDS011;12324;48.146;11.502;2023-06-10T06:46:22;13.70;;;7.15;;
24173;SDS011;12324;48.146;11.502;2023-06-10T06:48:49;15.50;;;7.70;;
24173;SDS011;12324;48.146;11.502;2023-06-10T06:51:17;14.35;;;7.57;;
24173;SDS011;12324;48.146;11.502;2023-06-10T06:53:44;16.95;;;7.25;;
24173;SDS011;12324;48.146;11.502;2023-06-10T06:56:11;13.40;;;6.97;;
24173;SDS011;12324;48.146;11.502;2023-06-10T06:58:39;12.73;;;6.60;;
24173;SDS011;12324;48.146;11.502;2023-06-10T07:01:06;13.38;;;6.72;;
24173;SDS011;12324;48.146;11.502;2023-06-10T07:03:34;17.80;;;7.32;;
24173;SDS011;12324;48.146;11.502;2023-06-10T07:06:02;14.02;;;7.57;;
24173;SDS011;12324;48.146;11.502;2023-06-10T07:08:29;16.33;;;7.53;;
24173;SDS011;12324;48.146;11.502;2023-06-10T07:10:56;15.02;;;7.80;;
24173;SDS011;12324;48.146;11.502;2023-06-10T07:13:23;16.70;;;7.03;;
24173;SDS011;12324;48.146;11.502;2023-06-10T07:15:50;15.15;;;7.72;;
24173;SDS011;12324;48.146;11.502;2023-06-10T07:18:17;14.90;;;7.63;;
24173;SDS011;12324;48.146;11.502;2023-06-10T07:20:44;14.68;;;7.75;;
24173;SDS011;12324;48.146;11.502;2023-06-10T07:23:12;12.50;;;6.55;;
24173;SDS011;12324;48.146;11.502;2023-06-10T07:25:40;13.05;;;6.20;;
24173;SDS011;12324;48.146;11.502;2023-06-10T07:28:08;12.27;;;6.10;;
24173;SDS011;12324;48.146;11.502;2023-06-10T07:30:35;11.45;;;6.15;;
24173;SDS011;12324;48.146;11.502;2023-06-10T07:33:02;14.23;;;6.80;;
24173;SDS011;12324;48.146;11.502;2023-06-10T07:35:32;12.88;;;6.95;;
24173;SDS011;12324;48.146;11.502;2023-06-10T07:37:59;16.58;;;7.50;;
24173;SDS011;12324;48.146;11.502;2023-06-10T07:40:26;14.15;;;6.80;;
24173;SDS011;12324;48.146;11.502;2023-06-10T07:42:53;14.23;;;6.28;;
24173;SDS011;12324;48.146;11.502;2023-06-10T07:45:20;12.98;;;5.57;;
24173;SDS011;12324;48.146;11.502;2023-06-10T07:47:48;12.18;;;5.80;;
24173;SDS011;12324;48.146;11.502;2023-06-10T07:50:15;12.90;;;5.82;;
24173;SDS011;12324;48.146;11.502;2023-06-10T07:52:42;9.90;;;5.05;;
24173;SDS011;12324;48.146;11.502;2023-06-10T07:55:09;8.93;;;4.38;;
24173;SDS011;12324;48.146;11.502;2023-06-10T07:57:37;10.48;;;5.05;;
24173;SDS011;12324;48.146;11.502;2023-06-10T08:00:05;10.73;;;4.72;;
24173;SDS011;12324;48.146;11.502;2023-06-10T08:02:32;9.68;;;4.80;;
24173;SDS011;12324;48.146;11.502;2023-06-10T08:04:59;8.80;;;4.15;;
24173;SDS011;12324;48.146;11.502;2023-06-10T08:07:27;10.07;;;4.95;;
24173;SDS011;12324;48.146;11.502;2023-06-10T08:09:54;11.32;;;4.53;;
24173;SDS011;12324;48.146;11.502;2023-06-10T08:12:21;12.25;;;5.40;;
24173;SDS011;12324;48.146;11.502;2023-06-10T08:14:48;10.52;;;4.40;;
24173;SDS011;12324;48.146;11.502;2023-06-10T08:17:16;10.00;;;4.75;;
24173;SDS011;12324;48.146;11.502;2023-06-10T08:19:43;9.43;;;4.63;;
24173;SDS011;12324;48.146;11.502;2023-06-10T08:22:10;7.93;;;3.78;;
24173;SDS011;12324;48.146;11.502;2023-06-10T08:24:37;8.05;;;4.05;;
24173;SDS011;12324;48.146;11.502;2023-06-10T08:27:04;9.77;;;4.28;;
24173;SDS011;12324;48.146;11.502;2023-06-10T08:29:32;9.02;;;4.07;;
24173;SDS011;12324;48.146;11.502;2023-06-10T08:31:59;9.68;;;4.28;;
24173;SDS011;12324;48.146;11.502;2023-06-10T08:34:27;7.40;;;3.97;;
24173;SDS011;12324;48.146;11.502;2023-06-10T08:36:54;9.05;;;4.25;;
24173;SDS011;12324;48.146;11.502;2023-06-10T08:39:21;10.65;;;4.57;;
24173;SDS011;12324;48.146;11.502;2023-06-10T08:42:11;8.60;;;4.18;;
24173;SDS011;12324;48.146;11.502;2023-06-10T08:44:38;8.70;;;4.40;;
24173;SDS011;12324;48.146;11.502;2023-06-10T08:47:06;8.95;;;4.30;;
24173;SDS011;12324;48.146;11.502;2023-06-10T08:49:36;9.38;;;4.50;;
24173;SDS011;12324;48.146;11.502;2023-06-10T08:52:05;9.05;;;4.53;;
24173;SDS011;12324;48.146;11.502;2023-06-10T08:54:33;9.55;;;4.30;;
24173;SDS011;12324;48.146;11.502;2023-06-10T08:57:05;11.50;;;4.55;;
24173;SDS011;12324;48.146;11.502;2023-06-10T08:59:32;11.23;;;4.65;;
24173;SDS011;12324;48.146;11.502;2023-06-10T09:01:59;9.20;;;4.43;;
24173;SDS011;12324;48.146;11.502;2023-06-10T09:04:27;10.40;;;4.20;;
24173;SDS011;12324;48.146;11.502;2023-06-10T09:06:54;9.80;;;4.82;;
24173;SDS011;12324;48.146;11.502;2023-06-10T09:09:23;9.98;;;4.60;;
24173;SDS011;12324;48.146;11.502;2023-06-10T09:11:50;7.28;;;4.22;;
24173;SDS011;12324;48.146;11.502;2023-06-10T09:14:17;10.73;;;4.80;;
24173;SDS011;12324;48.146;11.502;2023-06-10T09:16:44;11.25;;;4.75;;
24173;SDS011;12324;48.146;11.502;2023-06-10T09:19:13;8.25;;;4.13;;
24173;SDS011;12324;48.146;11.502;2023-06-10T09:21:40;11.45;;;4.20;;
24173;SDS011;12324;48.146;11.502;2023-06-10T09:24:08;9.50;;;4.63;;
24173;SDS011;12324;48.146;11.502;2023-06-10T09:26:35;8.45;;;4.10;;
24173;SDS011;12324;48.146;11.502;2023-06-10T09:29:05;8.80;;;4.18;;
24173;SDS011;12324;48.146;11.502;2023-06-10T09:31:35;9.00;;;4.35;;
24173;SDS011;12324;48.146;11.502;2023-06-10T09:34:09;9.70;;;4.60;;
24173;SDS011;12324;48.146;11.502;2023-06-10T09:39:03;9.52;;;4.63;;
24173;SDS011;12324;48.146;11.502;2023-06-10T09:41:34;10.43;;;5.15;;
24173;SDS011;12324;48.146;11.502;2023-06-10T09:44:02;8.63;;;4.18;;
24173;SDS011;12324;48.146;11.502;2023-06-10T09:46:36;8.88;;;4.72;;
24173;SDS011;12324;48.146;11.502;2023-06-10T09:49:03;8.68;;;4.47;;
24173;SDS011;12324;48.146;11.502;2023-06-10T09:51:30;7.63;;;3.60;;
24173;SDS011;12324;48.146;11.502;2023-06-10T09:53:57;8.48;;;4.15;;
24173;SDS011;12324;48.146;11.502;2023-06-10T09:56:32;7.97;;;4.00;;
24173;SDS011;12324;48.146;11.502;2023-06-10T09:59:00;8.85;;;4.28;;
24173;SDS011;12324;48.146;11.502;2023-06-10T10:01:27;14.07;;;9.60;;
24173;SDS011;12324;48.146;11.502;2023-06-10T10:03:55;39.60;;;35.92;;
24173;SDS011;12324;48.146;11.502;2023-06-10T10:06:22;12.95;;;8.35;;
24173;SDS011;12324;48.146;11.502;2023-06-10T10:08:49;7.18;;;3.72;;
24173;SDS011;12324;48.146;11.502;2023-06-10T10:11:18;20.50;;;11.43;;
24173;SDS011;12324;48.146;11.502;2023-06-10T10:13:46;24.33;;;15.32;;
24173;SDS011;12324;48.146;11.502;2023-06-10T10:16:17;58.50;;;50.33;;
24173;SDS011;12324;48.146;11.502;2023-06-10T10:18:54;34.53;;;28.95;;
24173;SDS011;12324;48.146;11.502;2023-06-10T10:21:22;16.27;;;8.23;;
24173;SDS011;12324;48.146;11.502;2023-06-10T10:24:00;6.82;;;3.97;;
24173;SDS011;12324;48.146;11.502;2023-06-10T10:26:28;10.25;;;4.55;;
24173;SDS011;12324;48.146;11.502;2023-06-10T10:31:29;9.03;;;3.77;;
24173;SDS011;12324;48.146;11.502;2023-06-10T10:34:00;7.88;;;3.30;;
24173;SDS011;12324;48.146;11.502;2023-06-10T10:36:29;7.47;;;3.05;;
24173;SDS011;12324;48.146;11.502;2023-06-10T10:38:56;4.72;;;2.90;;
24173;SDS011;12324;48.146;11.502;2023-06-10T10:41:24;6.35;;;3.38;;
24173;SDS011;12324;48.146;11.502;2023-06-10T10:43:52;7.78;;;3.70;;
24173;SDS011;12324;48.146;11.502;2023-06-10T10:46:20;7.05;;;3.55;;
24173;SDS011;12324;48.146;11.502;2023-06-10T10:48:51;5.70;;;3.10;;
24173;SDS011;12324;48.146;11.502;2023-06-10T10:51:19;6.95;;;3.40;;
24173;SDS011;12324;48.146;11.502;2023-06-10T10:54:32;7.88;;;3.13;;
24173;SDS011;12324;48.146;11.502;2023-06-10T10:56:34;5.82;;;3.08;;
24173;SDS011;12324;48.146;11.502;2023-06-10T10:59:05;5.22;;;3.30;;
24173;SDS011;12324;48.146;11.502;2023-06-10T11:01:44;7.32;;;3.65;;
24173;SDS011;12324;48.146;11.502;2023-06-10T11:04:13;7.07;;;3.63;;
24173;SDS011;12324;48.146;11.502;2023-06-10T11:06:40;7.55;;;3.83;;
24173;SDS011;12324;48.146;11.502;2023-06-10T11:09:25;8.68;;;4.13;;
24173;SDS011;12324;48.146;11.502;2023-06-10T11:11:53;7.30;;;3.88;;
24173;SDS011;12324;48.146;11.502;2023-06-10T11:14:26;6.10;;;3.15;;
24173;SDS011;12324;48.146;11.502;2023-06-10T11:16:58;6.25;;;3.75;;
24173;SDS011;12324;48.146;11.502;2023-06-10T11:19:35;8.30;;;4.32;;
24173;SDS011;12324;48.146;11.502;2023-06-10T11:22:04;7.97;;;3.90;;
24173;SDS011;12324;48.146;11.502;2023-06-10T11:24:32;8.50;;;3.75;;
24173;SDS011;12324;48.146;11.502;2023-06-10T11:27:21;7.32;;;3.53;;
24173;SDS011;12324;48.146;11.502;2023-06-10T11:32:30;9.60;;;3.97;;
24173;SDS011;12324;48.146;11.502;2023-06-10T11:34:58;7.75;;;3.42;;
24173;SDS011;12324;48.146;11.502;2023-06-10T11:37:25;6.50;;;3.40;;
24173;SDS011;12324;48.146;11.502;2023-06-10T11:39:55;5.28;;;3.00;;
24173;SDS011;12324;48.146;11.502;2023-06-10T11:42:28;8.25;;;4.13;;
24173;SDS011;12324;48.146;11.502;2023-06-10T11:45:05;6.93;;;3.58;;
24173;SDS011;12324;48.146;11.502;2023-06-10T11:47:35;7.05;;;3.50;;
24173;SDS011;12324;48.146;11.502;2023-06-10T11:50:02;7.50;;;3.97;;
24173;SDS011;12324;48.146;11.502;2023-06-10T11:52:30;7.95;;;3.45;;
24173;SDS011;12324;48.146;11.502;2023-06-10T11:55:04;6.82;;;3.70;;
24173;SDS011;12324;48.146;11.502;2023-06-10T11:57:35;5.82;;;3.55;;
24173;SDS011;12324;48.146;11.502;2023-06-10T12:00:05;9.13;;;4.18;;
24173;SDS011;12324;48.146;11.502;2023-06-10T12:02:33;7.90;;;3.90;;
24173;SDS011;12324;48.146;11.502;2023-06-10T12:05:14;7.40;;;3.80;;
24173;SDS011;12324;48.146;11.502;2023-06-10T12:07:41;6.68;;;3.55;;
24173;SDS011;12324;48.146;11.502;2023-06-10T12:10:09;5.13;;;3.03;;
24173;SDS011;12324;48.146;11.502;2023-06-10T12:12:52;7.15;;;3.42;;
24173;SDS011;12324;48.146;11.502;2023-06-10T12:15:25;5.90;;;3.28;;
24173;SDS011;12324;48.146;11.502;2023-06-10T12:17:55;6.80;;;3.53;;
24173;SDS011;12324;48.146;11.502;2023-06-10T12:20:26;7.85;;;3.63;;
24173;SDS011;12324;48.146;11.502;2023-06-10T12:22:57;9.73;;;3.95;;
24173;SDS011;12324;48.146;11.502;2023-06-10T12:25:25;8.50;;;3.33;;
24173;SDS011;12324;48.146;11.502;2023-06-10T12:27:53;7.00;;;3.42;;
24173;SDS011;12324;48.146;11.502;2023-06-10T12:30:21;6.05;;;3.20;;
24173;SDS011;12324;48.146;11.502;2023-06-10T12:32:49;8.20;;;2.67;;
24173;SDS011;12324;48.146;11.502;2023-06-10T12:35:17;7.40;;;2.95;;
24173;SDS011;12324;48.146;11.502;2023-06-10T12:37:57;5.70;;;3.20;;
24173;SDS011;12324;48.146;11.502;2023-06-10T12:40:27;5.57;;;2.97;;
24173;SDS011;12324;48.146;11.502;2023-06-10T12:42:55;6.47;;;3.35;;
24173;SDS011;12324;48.146;11.502;2023-06-10T12:45:32;6.15;;;3.03;;
24173;SDS011;12324;48.146;11.502;2023-06-10T12:50:36;5.80;;;2.90;;
24173;SDS011;12324;48.146;11.502;2023-06-10T12:53:04;6.15;;;3.05;;
24173;SDS011;12324;48.146;11.502;2023-06-10T12:55:32;5.38;;;3.00;;
24173;SDS011;12324;48.146;11.502;2023-06-10T12:57:59;5.03;;;3.08;;
24173;SDS011;12324;48.146;11.502;2023-06-10T13:00:27;5.07;;;3.03;;
24173;SDS011;12324;48.146;11.502;2023-06-10T13:02:56;6.25;;;2.97;;
24173;SDS011;12324;48.146;11.502;2023-06-10T13:05:23;5.25;;;2.72;;
24173;SDS011;12324;48.146;11.502;2023-06-10T13:07:51;5.32;;;2.97;;
24173;SDS011;12324;48.146;11.502;2023-06-10T13:10:18;4.88;;;3.15;;
24173;SDS011;12324;48.146;11.502;2023-06-10T13:12:50;5.32;;;3.15;;
24173;SDS011;12324;48.146;11.502;2023-06-10T13:15:17;6.57;;;3.58;;
24173;SDS011;12324;48.146;11.502;2023-06-10T13:17:44;7.13;;;3.60;;
24173;SDS011;12324;48.146;11.502;2023-06-10T13:20:15;7.63;;;3.70;;
24173;SDS011;12324;48.146;11.502;2023-06-10T13:22:43;8.93;;;4.50;;
24173;SDS011;12324;48.146;11.502;2023-06-10T13:25:11;9.32;;;4.75;;
24173;SDS011;12324;48.146;11.502;2023-06-10T13:27:39;7.05;;;3.72;;
24173;SDS011;12324;48.146;11.502;2023-06-10T13:30:08;6.20;;;3.42;;
24173;SDS011;12324;48.146;11.502;2023-06-10T13:32:36;7.45;;;3.90;;
24173;SDS011;12324;48.146;11.502;2023-06-10T13:35:03;7.82;;;3.85;;
24173;SDS011;12324;48.146;11.502;2023-06-10T13:37:30;8.32;;;3.65;;
24173;SDS011;12324;48.146;11.502;2023-06-10T13:40:00;7.25;;;4.07;;
24173;SDS011;12324;48.146;11.502;2023-06-10T13:42:27;7.75;;;4.03;;
24173;SDS011;12324;48.146;11.502;2023-06-10T13:44:55;5.88;;;3.33;;
24173;SDS011;12324;48.146;11.502;2023-06-10T13:47:25;8.05;;;3.75;;
24173;SDS011;12324;48.146;11.502;2023-06-10T13:49:52;5.93;;;3.38;;
24173;SDS011;12324;48.146;11.502;2023-06-10T13:52:19;7.07;;;3.78;;
24173;SDS011;12324;48.146;11.502;2023-06-10T13:54:47;7.30;;;3.50;;
24173;SDS011;12324;48.146;11.502;2023-06-10T13:57:14;7.70;;;3.40;;
24173;SDS011;12324;48.146;11.502;2023-06-10T13:59:41;4.78;;;3.17;;
24173;SDS011;12324;48.146;11.502;2023-06-10T14:02:09;6.45;;;3.28;;
24173;SDS011;12324;48.146;11.502;2023-06-10T14:04:36;5.80;;;3.42;;
24173;SDS011;12324;48.146;11.502;2023-06-10T14:07:04;5.72;;;3.10;;
24173;SDS011;12324;48.146;11.502;2023-06-10T14:09:31;7.18;;;3.50;;
24173;SDS011;12324;48.146;11.502;2023-06-10T14:11:58;5.10;;;3.10;;
24173;SDS011;12324;48.146;11.502;2023-06-10T14:14:25;6.60;;;3.10;;
24173;SDS011;12324;48.146;11.502;2023-06-10T14:16:52;5.97;;;3.38;;
24173;SDS011;12324;48.146;11.502;2023-06-10T14:19:20;6.40;;;3.08;;
24173;SDS011;12324;48.146;11.502;2023-06-10T14:21:47;5.28;;;3.05;;
24173;SDS011;12324;48.146;11.502;2023-06-10T14:24:15;5.30;;;3.20;;
24173;SDS011;12324;48.146;11.502;2023-06-10T14:26:43;5.38;;;3.28;;
24173;SDS011;12324;48.146;11.502;2023-06-10T14:29:10;6.10;;;3.38;;
24173;SDS011;12324;48.146;11.502;2023-06-10T14:31:40;7.45;;;3.15;;
24173;SDS011;12324;48.146;11.502;2023-06-10T14:34:07;7.90;;;3.42;;
24173;SDS011;12324;48.146;11.502;2023-06-10T14:36:35;10.20;;;6.38;;
24173;SDS011;12324;48.146;11.502;2023-06-10T14:39:03;6.28;;;3.33;;
24173;SDS011;12324;48.146;11.502;2023-06-10T14:41:30;6.07;;;3.17;;
24173;SDS011;12324;48.146;11.502;2023-06-10T14:43:58;6.60;;;3.13;;
24173;SDS011;12324;48.146;11.502;2023-06-10T14:46:25;9.10;;;4.40;;